Omak, WA

8:44 PM PDT on August 01, 2014 (GMT -0700)
Omak (KOMK) Elev 1302 ft | 48.46 °N, 119.52 °W | Change Station

Current weather conditions updated 51 minutes ago

Clear
Clear
90 °F
Feels Like 90 °F
N
5
Wind Variable Wind from SSW

Tomorrow is forecast to be Warmer than today.

Today
High -- | Low -- °F
--% Chance of Precip.
Yesterday
High -- | Low -- °F
Precip. -- in
5:33 AM 8:34 PM
Waxing Crescent, 32% visible
Pressure 29.87 in
Visibility 10.0 miles
Clouds Clear
Dew Point 42 °F
Humidity 19%
Rainfall 0.00 in
Snow Depth Not available.
UV 0 out of 12
Pollen 6.50 out of 12
Air Quality Not available.
Flu Activity Not available.
METAR KOMK 020253Z AUTO 20004KT 10SM CLR 32/06 A2990 RMK AO2 SLP113 T03220056 55004

More Conditions Fewer Conditions

Pressure 29.87 in
Visibility 10.0 miles
Clouds Clear
Dew Point 42 °F
Humidity 19%
Rainfall 0.00 in
Snow Depth Not available.
UV 0 out of 12
Pollen 6.50 out of 12
Air Quality Not available.
Flu Activity Not available.
METAR KOMK 020253Z AUTO 20004KT 10SM CLR 32/06 A2990 RMK AO2 SLP113 T03220056 55004

More Conditions Fewer Conditions

10-Day Weather Forecast

Almanac

Astronomy

Aug. 01, 2014 Rise Set
Actual Time 5:33 AM PDT 8:34 PM PDT
Civil Twilight 4:56 AM PDT 9:11 PM PDT
Nautical Twilight 4:08 AM PDT 9:59 PM PDT
Astronomical Twilight 3:09 AM PDT 10:57 PM PDT
Moon 11:32 AM PDT (8/1) 10:49 PM PDT (8/1)
Length of Visible Light 16h 15m
Length of Day
15h 01m
Tomorrow will be 2m 47s shorter.
Waxing Crescent, 32% of the Moon is Illuminated
Today
Waxing Crescent
Aug 3
First Quarter
Aug 10
Full
Aug 17
Last Quarter
Aug 25
New

Today's Extremes

State Highs State Lows

Community

WunderPhotos

Upload Photos

1,739,826 photos uploaded!

Nearby

Snow Depth

Station Depth Elevation
Moses Mountain 1 in 5300 ft
Rainy Pass 0 in 4780 ft
Sentinel Butte 0 in 4920 ft
Lyman Lake 0 in 5900 ft
Thunder Basin 1 in 4200 ft

Earthquake Activity

City Distance Mag. Time & Date
No recent earthquake activity has been reported nearby.
Minimum magnitude displayed is 2.5.

Coastal Water Temperatures

Place Temperature
No Stations Reporting

Nearby Weather Stations

Station Location Temp. Heat Index Dew Point Humidity Wind Precip. Elev Updated Type
Brewster, WA 90.0 °F 87 °F 47 °F 23% SSE  at  3.0 mph 0.00 in / hr 1004 ft 8:44 PM PDT Rapid Fire
MesoWest Loup Loup Summit , Malott, WA 82 °F 80 °F 35 °F 18% SSE  at  2 mph 0.00 in / hr 4019 ft 6:15 PM PDT MADIS
RAWS LEECHER WA, Carlton, WA 77 °F 77 °F 37 °F 24% SSW  at  5 mph 0.00 in / hr 4991 ft 7:25 PM PDT MADIS

Show More Stations Show Fewer Stations